createdAt,value
2019-01-21T00:01:15.187Z,79.03
2019-01-21T00:03:42.246Z,81.45
2019-01-21T00:06:08.217Z,81.43
2019-01-21T00:08:34.199Z,88.60
2019-01-21T00:11:00.147Z,80.23
2019-01-21T00:13:25.997Z,79.83
2019-01-21T00:15:51.962Z,78.07
2019-01-21T00:18:17.980Z,78.80
2019-01-21T00:20:43.883Z,81.67
2019-01-21T00:23:09.735Z,81.47
2019-01-21T00:25:35.688Z,83.33
2019-01-21T00:28:01.552Z,83.47
2019-01-21T00:30:27.425Z,82.60
2019-01-21T00:32:53.373Z,87.03
2019-01-21T00:35:19.238Z,82.47
2019-01-21T00:37:48.430Z,81.87
2019-01-21T00:40:15.826Z,82.67
2019-01-21T00:42:41.857Z,84.00
2019-01-21T00:45:07.770Z,88.00
2019-01-21T00:47:33.637Z,85.13
2019-01-21T00:49:59.646Z,83.60
2019-01-21T00:52:25.549Z,87.82
2019-01-21T00:54:51.531Z,83.43
2019-01-21T00:57:17.418Z,86.27
2019-01-21T00:59:43.510Z,87.17
2019-01-21T01:02:09.393Z,82.22
2019-01-21T01:04:35.257Z,80.87
2019-01-21T01:07:01.251Z,79.70
2019-01-21T01:09:27.119Z,83.17
2019-01-21T01:11:53.016Z,80.17
2019-01-21T01:14:18.880Z,80.43
2019-01-21T01:16:44.743Z,74.10
2019-01-21T01:19:10.605Z,73.90
2019-01-21T01:21:36.569Z,73.97
2019-01-21T01:24:02.437Z,70.07
2019-01-21T01:26:28.356Z,69.17
2019-01-21T01:28:54.244Z,72.37
2019-01-21T01:31:20.091Z,71.00
2019-01-21T01:33:46.022Z,67.70
2019-01-21T01:36:11.904Z,68.03
2019-01-21T01:38:37.791Z,68.53
2019-01-21T01:41:03.863Z,68.80
2019-01-21T01:43:29.753Z,72.97
2019-01-21T01:45:55.627Z,69.07
2019-01-21T01:48:21.523Z,67.87
2019-01-21T01:50:47.529Z,67.17
2019-01-21T01:53:13.427Z,65.80
2019-01-21T01:55:39.295Z,61.73
2019-01-21T01:58:05.267Z,62.60
2019-01-21T02:00:31.171Z,65.53
2019-01-21T02:02:59.080Z,62.53
2019-01-21T02:05:25.185Z,62.93
2019-01-21T02:07:51.181Z,65.92
2019-01-21T02:10:17.157Z,63.40
2019-01-21T02:12:43.452Z,61.02
2019-01-21T02:15:11.341Z,60.65
2019-01-21T02:17:37.416Z,56.92
2019-01-21T02:20:06.992Z,62.75
2019-01-21T02:22:33.017Z,60.23
2019-01-21T02:25:00.212Z,63.00
2019-01-21T02:27:30.435Z,61.90
2019-01-21T02:30:25.818Z,58.60
2019-01-21T02:33:01.114Z,61.30
2019-01-21T02:35:37.550Z,59.98
2019-01-21T02:38:10.193Z,58.73
2019-01-21T02:40:45.523Z,61.48
2019-01-21T02:43:30.337Z,62.70
2019-01-21T02:46:11.966Z,60.88
2019-01-21T02:48:44.674Z,58.68
2019-01-21T02:51:20.751Z,62.43
2019-01-21T02:54:02.716Z,61.90
2019-01-21T02:56:38.436Z,60.90
2019-01-21T02:59:20.135Z,62.15
2019-01-21T03:02:07.861Z,58.25
2019-01-21T03:05:11.127Z,61.28
2019-01-21T03:07:46.223Z,60.28
2019-01-21T03:10:35.834Z,56.85
2019-01-21T03:13:11.667Z,55.25
2019-01-21T03:15:47.649Z,59.93
2019-01-21T03:18:17.322Z,53.38
2019-01-21T03:21:04.305Z,58.25
2019-01-21T03:23:33.986Z,53.95
2019-01-21T03:26:21.991Z,58.25
2019-01-21T03:28:51.764Z,55.83
2019-01-21T03:31:24.463Z,55.38
2019-01-21T03:34:06.221Z,58.73
2019-01-21T03:36:48.146Z,55.28
2019-01-21T03:39:34.433Z,57.35
2019-01-21T03:42:04.134Z,55.28
2019-01-21T03:44:49.181Z,53.92
2019-01-21T03:47:24.679Z,55.20
2019-01-21T03:50:09.577Z,53.20
2019-01-21T03:52:57.708Z,52.48
2019-01-21T03:55:23.752Z,53.38
2019-01-21T03:57:56.489Z,51.70
2019-01-21T04:00:29.318Z,53.15
2019-01-21T04:03:14.041Z,51.08
2019-01-21T04:05:49.475Z,51.28
2019-01-21T04:08:28.724Z,47.93
2019-01-21T04:11:03.748Z,49.30
2019-01-21T04:13:56.246Z,49.15
2019-01-21T04:16:49.188Z,50.28
2019-01-21T04:19:24.866Z,49.65
2019-01-21T04:22:10.214Z,51.58
2019-01-21T04:24:45.856Z,49.95
2019-01-21T04:27:33.756Z,49.65
2019-01-21T04:30:21.843Z,47.78
2019-01-21T04:32:57.510Z,49.67
2019-01-21T04:35:44.125Z,47.25
2019-01-21T04:38:30.492Z,44.58
2019-01-21T04:41:24.348Z,45.58
2019-01-21T04:44:28.297Z,48.90
2019-01-21T04:47:28.363Z,46.05
2019-01-21T04:50:16.397Z,43.38
2019-01-21T04:52:58.355Z,46.20
2019-01-21T04:55:34.111Z,44.42
2019-01-21T04:58:06.708Z,47.40
2019-01-21T05:00:48.734Z,46.88
2019-01-21T05:03:35.250Z,45.52
2019-01-21T05:06:11.160Z,43.85
2019-01-21T05:08:49.602Z,43.92
2019-01-21T05:11:30.971Z,40.40
2019-01-21T05:14:06.556Z,42.48
2019-01-21T05:16:51.643Z,41.88
2019-01-21T05:19:24.294Z,43.58
2019-01-21T05:22:03.234Z,39.67
2019-01-21T05:24:38.994Z,42.43
2019-01-21T05:27:25.556Z,41.98
2019-01-21T05:30:13.141Z,38.80
2019-01-21T05:33:02.278Z,39.20
2019-01-21T05:35:40.529Z,41.20
2019-01-21T05:38:16.482Z,39.92
2019-01-21T05:40:55.260Z,40.67
2019-01-21T05:43:44.472Z,38.00
2019-01-21T05:46:19.675Z,41.25
2019-01-21T05:48:58.417Z,39.58
2019-01-21T05:51:42.985Z,40.30
2019-01-21T05:54:12.735Z,38.83
2019-01-21T05:56:51.469Z,40.70
2019-01-21T05:59:23.904Z,35.55
2019-01-21T06:01:56.606Z,41.28
2019-01-21T06:04:38.055Z,40.20
2019-01-21T06:07:10.732Z,38.40
2019-01-21T06:09:46.237Z,40.05
2019-01-21T06:12:21.288Z,40.78
2019-01-21T06:15:06.065Z,38.75
2019-01-21T06:17:41.435Z,36.80
2019-01-21T06:20:29.835Z,35.85
2019-01-21T06:23:15.076Z,38.70
2019-01-21T06:26:00.241Z,38.50
2019-01-21T06:28:41.073Z,35.33
2019-01-21T06:31:46.562Z,37.67
2019-01-21T06:34:36.989Z,38.38
2019-01-21T06:37:24.859Z,40.85
2019-01-21T06:40:19.198Z,39.58
2019-01-21T06:43:10.097Z,37.38
2019-01-21T06:46:13.254Z,36.90
2019-01-21T06:49:04.755Z,36.83
2019-01-21T06:51:41.524Z,36.00
2019-01-21T06:54:14.114Z,38.58
2019-01-21T06:56:52.831Z,36.58
2019-01-21T06:59:34.630Z,35.75
2019-01-21T07:02:04.388Z,34.88
2019-01-21T07:04:34.211Z,34.58
2019-01-21T07:07:23.897Z,32.80
2019-01-21T07:09:56.404Z,35.77
2019-01-21T07:12:41.212Z,31.87
2019-01-21T07:15:27.495Z,33.65
2019-01-21T07:18:06.001Z,31.10
2019-01-21T07:20:44.575Z,33.43
2019-01-21T07:23:17.357Z,35.50
2019-01-21T07:26:05.262Z,32.28
2019-01-21T07:28:38.167Z,38.08
2019-01-21T07:31:17.078Z,33.30
2019-01-21T07:33:59.023Z,32.78
2019-01-21T07:36:49.391Z,32.58
2019-01-21T07:39:25.021Z,30.23
2019-01-21T07:42:09.944Z,33.18
2019-01-21T07:44:54.492Z,32.40
2019-01-21T07:47:40.115Z,33.10
2019-01-21T07:50:09.941Z,32.08
2019-01-21T07:52:45.243Z,31.52
2019-01-21T07:55:32.534Z,30.43
2019-01-21T07:58:11.048Z,31.42
2019-01-21T08:00:46.576Z,33.70
2019-01-21T08:03:40.946Z,33.50
2019-01-21T08:06:19.684Z,33.60
2019-01-21T08:08:52.153Z,33.42
2019-01-21T08:11:24.910Z,29.93
2019-01-21T08:14:00.545Z,30.33
2019-01-21T08:16:42.374Z,31.02
2019-01-21T08:19:14.836Z,25.73
2019-01-21T08:22:17.703Z,28.90
2019-01-21T08:25:19.474Z,27.67
2019-01-21T08:27:55.610Z,25.83
2019-01-21T08:30:42.097Z,27.53
2019-01-21T08:33:14.802Z,27.57
2019-01-21T08:35:50.658Z,30.83
2019-01-21T08:38:23.504Z,28.67
2019-01-21T08:40:56.160Z,28.67
2019-01-21T08:43:40.438Z,29.13
2019-01-21T08:46:31.146Z,27.30
2019-01-21T08:49:00.954Z,27.60
2019-01-21T08:51:42.915Z,30.37
2019-01-21T08:54:15.597Z,27.33
2019-01-21T08:56:57.313Z,25.53
2019-01-21T08:59:30.015Z,28.73
2019-01-21T09:02:12.064Z,28.90
2019-01-21T09:04:57.110Z,25.50
2019-01-21T09:07:41.877Z,25.23
2019-01-21T09:10:40.927Z,34.77
2019-01-21T09:13:22.425Z,23.33
2019-01-21T09:16:03.560Z,24.67
2019-01-21T09:18:39.122Z,24.40
2019-01-21T09:21:11.322Z,27.17
2019-01-21T09:23:44.701Z,31.27
2019-01-21T09:26:34.059Z,34.17
2019-01-21T09:29:06.815Z,35.03
2019-01-21T09:31:57.679Z,36.80
2019-01-21T09:34:27.439Z,38.07
2019-01-21T09:37:17.171Z,38.03
2019-01-21T09:39:49.846Z,36.47
2019-01-21T09:42:28.740Z,37.53
2019-01-21T09:45:13.191Z,34.67
2019-01-21T09:47:38.944Z,35.03
2019-01-21T09:50:05.041Z,35.00
2019-01-21T09:52:30.926Z,29.27
2019-01-21T09:54:56.811Z,29.97
2019-01-21T09:57:23.201Z,28.23
2019-01-21T09:59:50.020Z,28.27
2019-01-21T10:02:16.705Z,33.87
2019-01-21T10:04:43.808Z,33.33
2019-01-21T10:07:16.072Z,30.60
2019-01-21T10:09:57.800Z,29.03
2019-01-21T10:12:44.348Z,28.87
2019-01-21T10:15:30.121Z,32.43
2019-01-21T10:18:21.168Z,28.63
2019-01-21T10:21:18.323Z,34.50
2019-01-21T10:23:51.053Z,29.37
2019-01-21T10:26:32.915Z,35.87
2019-01-21T10:29:08.951Z,31.07
2019-01-21T10:31:50.313Z,31.53
2019-01-21T10:34:50.159Z,30.83
2019-01-21T10:37:47.475Z,31.60
2019-01-21T10:40:20.092Z,30.97
2019-01-21T10:43:12.151Z,39.23
2019-01-21T10:46:03.131Z,30.87
2019-01-21T10:49:00.204Z,34.70
2019-01-21T10:51:54.385Z,33.53
2019-01-21T10:54:32.918Z,29.87
2019-01-21T10:57:08.428Z,32.83
2019-01-21T10:59:50.416Z,30.27
2019-01-21T11:02:36.753Z,32.07
2019-01-21T11:05:09.252Z,31.40
2019-01-21T11:07:51.096Z,33.03
2019-01-21T11:10:25.838Z,32.37
2019-01-21T11:12:58.625Z,35.33
2019-01-21T11:15:28.309Z,34.43
2019-01-21T11:18:04.335Z,30.47
2019-01-21T11:20:42.499Z,30.67
2019-01-21T11:23:33.892Z,35.87
2019-01-21T11:26:22.927Z,30.00
2019-01-21T11:28:52.714Z,32.43
2019-01-21T11:31:30.961Z,32.27
2019-01-21T11:34:09.455Z,33.57
2019-01-21T11:36:58.683Z,31.03
2019-01-21T11:39:28.401Z,27.20
2019-01-21T11:42:16.433Z,32.43
2019-01-21T11:44:55.190Z,30.77
2019-01-21T11:47:49.264Z,34.17
2019-01-21T11:50:19.017Z,37.57
2019-01-21T11:52:57.451Z,32.67
2019-01-21T11:55:33.076Z,42.97
2019-01-21T11:58:12.381Z,40.67
2019-01-21T12:00:50.815Z,40.60
2019-01-21T12:03:23.681Z,41.23
2019-01-21T12:05:50.957Z,45.33
2019-01-21T12:08:23.394Z,42.97
2019-01-21T12:10:56.068Z,43.40
2019-01-21T12:13:47.348Z,45.73
2019-01-21T12:16:20.089Z,40.67
2019-01-21T12:18:59.058Z,42.07
2019-01-21T12:21:31.478Z,43.50
2019-01-21T12:24:01.147Z,40.73
2019-01-21T12:26:39.878Z,39.50
2019-01-21T12:29:12.602Z,39.53
2019-01-21T12:31:54.385Z,38.27
2019-01-21T12:34:33.004Z,42.57
2019-01-21T12:37:02.664Z,41.57
2019-01-21T12:39:41.680Z,43.20
2019-01-21T12:42:11.372Z,41.10
2019-01-21T12:44:55.687Z,41.47
2019-01-21T12:47:31.235Z,46.47
2019-01-21T12:50:24.099Z,41.33
2019-01-21T12:52:53.450Z,48.43
2019-01-21T12:55:29.162Z,45.37
2019-01-21T12:58:08.144Z,41.33
2019-01-21T13:00:44.180Z,42.83
2019-01-21T13:03:23.259Z,48.30
2019-01-21T13:06:09.903Z,42.67
2019-01-21T13:08:45.897Z,40.80
2019-01-21T13:11:18.741Z,40.03
2019-01-21T13:13:54.716Z,38.50
2019-01-21T13:16:27.408Z,37.67
2019-01-21T13:19:30.631Z,42.33
2019-01-21T13:22:14.907Z,40.13
2019-01-21T13:24:55.677Z,43.67
2019-01-21T13:27:51.372Z,39.20
2019-01-21T13:30:29.888Z,41.47
2019-01-21T13:33:15.658Z,41.83
2019-01-21T13:36:00.630Z,43.13
2019-01-21T13:38:42.029Z,42.17
2019-01-21T13:41:11.720Z,44.47
2019-01-21T13:43:52.938Z,40.40
2019-01-21T13:46:44.341Z,41.07
2019-01-21T13:49:14.045Z,42.47
2019-01-21T13:51:49.607Z,45.47
2019-01-21T13:54:28.206Z,43.80
2019-01-21T13:57:01.259Z,40.87
2019-01-21T13:59:53.866Z,39.63
2019-01-21T14:02:26.321Z,43.13
2019-01-21T14:05:07.859Z,44.33
2019-01-21T14:07:57.430Z,42.23
2019-01-21T14:10:32.947Z,38.83
2019-01-21T14:13:05.795Z,38.80
2019-01-21T14:15:38.436Z,40.13
2019-01-21T14:18:25.962Z,41.73
2019-01-21T14:21:01.725Z,36.10
2019-01-21T14:23:52.870Z,39.90
2019-01-21T14:26:39.365Z,35.50
2019-01-21T14:29:15.363Z,36.20
2019-01-21T14:31:50.795Z,36.60
2019-01-21T14:34:26.024Z,42.90
2019-01-21T14:37:29.111Z,40.73
2019-01-21T14:40:14.339Z,40.77
2019-01-21T14:42:55.885Z,38.13
2019-01-21T14:45:34.541Z,39.23
2019-01-21T14:48:30.443Z,38.20
2019-01-21T14:51:19.596Z,41.80
2019-01-21T14:53:52.060Z,45.00
2019-01-21T14:56:24.842Z,48.13
2019-01-21T14:59:11.105Z,41.53
2019-01-21T15:01:46.804Z,41.73
2019-01-21T15:04:34.641Z,40.73
2019-01-21T15:07:07.479Z,45.27
2019-01-21T15:09:39.999Z,41.00
2019-01-21T15:12:21.824Z,46.03
2019-01-21T15:15:24.941Z,45.97
2019-01-21T15:18:14.597Z,44.83
2019-01-21T15:20:47.351Z,44.60
2019-01-21T15:23:41.633Z,47.30
2019-01-21T15:26:11.317Z,47.40
2019-01-21T15:29:15.918Z,49.73
2019-01-21T15:31:51.650Z,47.70
2019-01-21T15:34:33.650Z,53.97
2019-01-21T15:37:24.707Z,50.33
2019-01-21T15:39:57.559Z,52.50
2019-01-21T15:42:33.300Z,53.97
2019-01-21T15:45:25.644Z,57.13
2019-01-21T15:47:56.796Z,58.93
2019-01-21T15:50:54.117Z,60.30
2019-01-21T15:53:42.180Z,60.73
2019-01-21T15:56:30.266Z,69.90
2019-01-21T15:59:02.945Z,63.53
2019-01-21T16:01:32.617Z,72.00
2019-01-21T16:04:08.186Z,70.73
2019-01-21T16:06:37.891Z,68.73
2019-01-21T16:09:07.566Z,76.70
2019-01-21T16:11:37.273Z,73.83
2019-01-21T16:14:03.257Z,72.83
2019-01-21T16:16:35.868Z,73.10
2019-01-21T16:19:08.626Z,73.97
2019-01-21T16:21:53.861Z,82.97
2019-01-21T16:24:23.583Z,74.90
2019-01-21T16:26:55.974Z,73.43
2019-01-21T16:29:25.632Z,76.17
2019-01-21T16:31:53.738Z,78.00
2019-01-21T16:34:38.346Z,82.47
2019-01-21T16:37:20.153Z,75.87
2019-01-21T16:40:08.016Z,77.97
2019-01-21T16:42:34.505Z,79.10
2019-01-21T16:45:00.400Z,73.33
2019-01-21T16:47:26.653Z,79.73
2019-01-21T16:49:52.612Z,72.03
2019-01-21T16:52:18.507Z,76.67
2019-01-21T16:54:44.368Z,76.07
2019-01-21T16:57:13.781Z,76.87
2019-01-21T16:59:39.729Z,80.03
2019-01-21T17:02:05.601Z,73.87
2019-01-21T17:04:32.812Z,67.90
2019-01-21T17:06:58.897Z,63.67
2019-01-21T17:09:24.795Z,64.67
2019-01-21T17:11:50.685Z,67.80
2019-01-21T17:14:16.557Z,78.73
2019-01-21T17:16:42.574Z,54.80
2019-01-21T17:19:08.478Z,58.37
2019-01-21T17:24:01.264Z,64.60
2019-01-21T17:26:27.191Z,55.00
2019-01-21T17:28:54.116Z,54.97
2019-01-21T17:31:20.054Z,52.30
2019-01-21T17:33:45.979Z,59.27
2019-01-21T17:36:11.922Z,51.90
2019-01-21T17:38:37.810Z,55.40
2019-01-21T17:41:03.747Z,56.77
2019-01-21T17:43:29.736Z,59.23
2019-01-21T17:45:55.615Z,64.60
2019-01-21T17:48:21.496Z,65.50
2019-01-21T17:50:47.402Z,74.40
2019-01-21T17:53:13.279Z,84.50
2019-01-21T17:55:39.156Z,70.40
2019-01-21T17:58:05.081Z,77.80
2019-01-21T18:00:30.961Z,75.20
2019-01-21T18:02:57.006Z,77.10
2019-01-21T18:05:22.862Z,73.97
2019-01-21T18:07:48.749Z,72.07
2019-01-21T18:10:16.703Z,75.97
2019-01-21T18:12:42.688Z,73.30
2019-01-21T18:15:10.271Z,77.03
2019-01-21T18:17:36.223Z,77.33
2019-01-21T18:20:08.796Z,82.73
2019-01-21T18:22:34.651Z,73.37
2019-01-21T18:25:00.575Z,72.70
2019-01-21T18:27:26.520Z,72.73
2019-01-21T18:29:52.411Z,67.87
2019-01-21T18:32:18.278Z,69.57
2019-01-21T18:34:44.168Z,76.87
2019-01-21T18:37:10.117Z,76.90
2019-01-21T18:39:35.994Z,72.33
2019-01-21T18:42:02.126Z,76.23
2019-01-21T18:44:28.046Z,73.37
2019-01-21T18:46:54.158Z,74.73
2019-01-21T18:49:22.908Z,74.30
2019-01-21T18:51:47.905Z,72.87
2019-01-21T18:54:13.877Z,75.27
2019-01-21T18:56:43.787Z,76.57
2019-01-21T18:59:09.748Z,66.60
2019-01-21T19:01:35.652Z,77.63
2019-01-21T19:04:01.526Z,69.80
2019-01-21T19:06:27.445Z,71.20
2019-01-21T19:08:53.328Z,79.23
2019-01-21T19:11:19.194Z,69.40
2019-01-21T19:13:45.107Z,75.80
2019-01-21T19:16:10.969Z,84.50
2019-01-21T19:18:36.942Z,67.00
2019-01-21T19:21:02.792Z,76.00
2019-01-21T19:23:28.689Z,68.83
2019-01-21T19:25:54.575Z,71.17
2019-01-21T19:28:20.621Z,72.27
2019-01-21T19:30:46.604Z,79.33
2019-01-21T19:33:12.907Z,69.83
2019-01-21T19:35:38.781Z,71.47
2019-01-21T19:38:04.689Z,77.77
2019-01-21T19:40:32.142Z,70.70
2019-01-21T19:42:58.095Z,70.17
2019-01-21T19:45:24.089Z,64.30
2019-01-21T19:47:50.036Z,64.33
2019-01-21T19:50:20.649Z,68.47
2019-01-21T19:52:46.504Z,59.97
2019-01-21T19:55:21.530Z,63.73
2019-01-21T19:57:47.618Z,70.07
2019-01-21T20:00:17.311Z,66.50
2019-01-21T20:02:44.527Z,66.63
2019-01-21T20:05:10.865Z,63.87
2019-01-21T20:07:36.749Z,70.83
2019-01-21T20:10:06.395Z,69.27
2019-01-21T20:12:32.291Z,69.17
2019-01-21T20:14:58.991Z,66.37
2019-01-21T20:17:24.849Z,74.47
2019-01-21T20:19:50.724Z,64.20
2019-01-21T20:22:16.607Z,67.57
2019-01-21T20:24:42.578Z,63.97
2019-01-21T20:27:08.524Z,64.50
2019-01-21T20:29:34.417Z,64.80
2019-01-21T20:32:00.285Z,59.83
2019-01-21T20:34:26.534Z,58.00
2019-01-21T20:36:52.441Z,61.07
2019-01-21T20:39:18.357Z,57.50
2019-01-21T20:41:44.190Z,61.50
2019-01-21T20:44:10.087Z,64.20
2019-01-21T20:46:36.003Z,57.37
2019-01-21T20:49:01.870Z,63.37
2019-01-21T20:51:27.753Z,62.67
2019-01-21T20:53:53.660Z,59.47
2019-01-21T20:56:19.694Z,59.57
2019-01-21T20:58:45.604Z,59.57
2019-01-21T21:01:11.599Z,58.90
2019-01-21T21:03:37.458Z,66.23
2019-01-21T21:06:03.353Z,60.80
2019-01-21T21:08:29.348Z,60.20
2019-01-21T21:10:55.222Z,63.80
2019-01-21T21:13:21.251Z,58.00
2019-01-21T21:15:47.286Z,55.47
2019-01-21T21:18:13.293Z,53.17
2019-01-21T21:20:39.162Z,52.57
2019-01-21T21:23:05.029Z,50.43
2019-01-21T21:25:30.962Z,51.57
2019-01-21T21:27:56.846Z,49.37
2019-01-21T21:30:25.151Z,49.37
2019-01-21T21:32:51.031Z,50.13
2019-01-21T21:35:17.376Z,47.80
2019-01-21T21:37:43.256Z,45.90
2019-01-21T21:40:12.022Z,49.20
2019-01-21T21:42:37.940Z,46.40
2019-01-21T21:45:07.306Z,48.73
2019-01-21T21:47:33.206Z,52.63
2019-01-21T21:49:59.102Z,48.83
2019-01-21T21:52:27.856Z,50.53
2019-01-21T21:54:53.238Z,49.20
2019-01-21T21:57:19.111Z,57.83
2019-01-21T21:59:45.020Z,62.57
2019-01-21T22:02:10.924Z,49.13
2019-01-21T22:04:36.797Z,48.70
2019-01-21T22:07:02.681Z,47.80
2019-01-21T22:09:28.565Z,56.90
2019-01-21T22:11:54.496Z,52.27
2019-01-21T22:14:20.500Z,51.00
2019-01-21T22:16:46.369Z,48.53
2019-01-21T22:19:12.247Z,53.33
2019-01-21T22:21:38.136Z,50.63
2019-01-21T22:24:04.022Z,48.77
2019-01-21T22:26:29.867Z,45.93
2019-01-21T22:28:55.862Z,48.30
2019-01-21T22:31:21.745Z,44.87
2019-01-21T22:33:47.628Z,46.53
2019-01-21T22:36:13.539Z,46.97
2019-01-21T22:38:39.562Z,45.17
2019-01-21T22:41:06.017Z,42.93
2019-01-21T22:43:31.946Z,40.77
2019-01-21T22:45:57.838Z,43.70
2019-01-21T22:48:23.756Z,43.57
2019-01-21T22:50:49.623Z,39.43
2019-01-21T22:53:15.542Z,40.57
2019-01-21T22:55:41.394Z,38.70
2019-01-21T22:58:07.693Z,39.10
2019-01-21T23:00:45.939Z,38.63
2019-01-21T23:03:12.139Z,35.67
2019-01-21T23:05:38.133Z,34.57
2019-01-21T23:08:03.982Z,34.33
2019-01-21T23:10:29.884Z,36.27
2019-01-21T23:12:55.779Z,37.07
2019-01-21T23:15:21.657Z,37.03
2019-01-21T23:17:47.551Z,33.67
2019-01-21T23:20:13.458Z,35.60
2019-01-21T23:22:39.314Z,34.50
2019-01-21T23:25:05.787Z,38.83
2019-01-21T23:27:31.752Z,36.68
2019-01-21T23:29:57.630Z,42.27
2019-01-21T23:32:23.478Z,44.93
2019-01-21T23:34:49.347Z,40.37
2019-01-21T23:37:15.230Z,42.13
2019-01-21T23:39:41.105Z,43.57
2019-01-21T23:42:06.996Z,37.20
2019-01-21T23:44:32.889Z,40.27
2019-01-21T23:46:59.103Z,40.17
2019-01-21T23:49:24.976Z,37.47
2019-01-21T23:51:50.917Z,40.73
2019-01-21T23:54:16.793Z,40.43
2019-01-21T23:56:42.653Z,37.33
2019-01-21T23:59:08.536Z,37.80
